sensor_id;sensor_type;location;lat;lon;timestamp;pressure;altitude;pressure_sealevel;temperature;humidity
7906;BME280;13291;40.472;-3.878;2023-05-12T00:01:26;53058.00;;;-139.96;30.75
7906;BME280;13291;40.472;-3.878;2023-05-12T00:03:53;53054.00;;;-139.96;30.74
7906;BME280;13291;40.472;-3.878;2023-05-12T00:06:20;53050.00;;;-139.96;31.19
7906;BME280;13291;40.472;-3.878;2023-05-12T00:08:49;53038.00;;;-139.96;31.40
7906;BME280;13291;40.472;-3.878;2023-05-12T00:11:16;53060.00;;;-139.96;31.46
7906;BME280;13291;40.472;-3.878;2023-05-12T00:13:43;53050.00;;;-139.96;31.46
7906;BME280;13291;40.472;-3.878;2023-05-12T00:16:10;53052.00;;;-139.96;31.52
7906;BME280;13291;40.472;-3.878;2023-05-12T00:18:37;53050.00;;;-139.96;31.62
7906;BME280;13291;40.472;-3.878;2023-05-12T00:21:04;53078.00;;;-139.96;31.69
7906;BME280;13291;40.472;-3.878;2023-05-12T00:23:33;53076.00;;;-139.96;31.79
7906;BME280;13291;40.472;-3.878;2023-05-12T00:26:01;53070.00;;;-139.96;31.82
7906;BME280;13291;40.472;-3.878;2023-05-12T00:28:28;53032.00;;;-139.96;32.02
7906;BME280;13291;40.472;-3.878;2023-05-12T00:31:00;53078.00;;;-139.96;32.15
7906;BME280;13291;40.472;-3.878;2023-05-12T00:33:27;53030.00;;;-139.96;32.42
7906;BME280;13291;40.472;-3.878;2023-05-12T00:35:54;53078.00;;;-139.96;32.74
7906;BME280;13291;40.472;-3.878;2023-05-12T00:38:21;53046.00;;;-139.96;32.82
7906;BME280;13291;40.472;-3.878;2023-05-12T00:40:48;53082.00;;;-139.96;33.24
7906;BME280;13291;40.472;-3.878;2023-05-12T00:43:16;53086.00;;;-139.96;33.13
7906;BME280;13291;40.472;-3.878;2023-05-12T00:45:43;53090.00;;;-139.96;33.13
7906;BME280;13291;40.472;-3.878;2023-05-12T00:48:10;53094.00;;;-139.96;33.67
7906;BME280;13291;40.472;-3.878;2023-05-12T00:50:37;53084.00;;;-139.96;34.29
7906;BME280;13291;40.472;-3.878;2023-05-12T00:53:05;53082.00;;;-139.96;34.26
7906;BME280;13291;40.472;-3.878;2023-05-12T00:55:32;53078.00;;;-139.96;34.39
7906;BME280;13291;40.472;-3.878;2023-05-12T00:57:59;53094.00;;;-139.96;34.19
7906;BME280;13291;40.472;-3.878;2023-05-12T01:00:27;53070.00;;;-139.96;34.32
7906;BME280;13291;40.472;-3.878;2023-05-12T01:02:54;53088.00;;;-139.96;34.48
7906;BME280;13291;40.472;-3.878;2023-05-12T01:05:25;53070.00;;;-139.96;34.63
7906;BME280;13291;40.472;-3.878;2023-05-12T01:07:56;53068.00;;;-139.96;34.77
7906;BME280;13291;40.472;-3.878;2023-05-12T01:10:25;53092.00;;;-139.96;34.80
7906;BME280;13291;40.472;-3.878;2023-05-12T01:12:52;53090.00;;;-139.96;34.73
7906;BME280;13291;40.472;-3.878;2023-05-12T01:15:19;53084.00;;;-139.96;34.96
7906;BME280;13291;40.472;-3.878;2023-05-12T01:17:51;53062.00;;;-139.96;34.86
7906;BME280;13291;40.472;-3.878;2023-05-12T01:20:21;53066.00;;;-139.96;34.76
7906;BME280;13291;40.472;-3.878;2023-05-12T01:22:49;53074.00;;;-139.96;35.01
7906;BME280;13291;40.472;-3.878;2023-05-12T01:25:18;53072.00;;;-139.96;35.07
7906;BME280;13291;40.472;-3.878;2023-05-12T01:27:49;53062.00;;;-139.96;35.00
7906;BME280;13291;40.472;-3.878;2023-05-12T01:30:18;53096.00;;;-139.96;35.08
7906;BME280;13291;40.472;-3.878;2023-05-12T01:32:45;53118.00;;;-139.96;35.12
7906;BME280;13291;40.472;-3.878;2023-05-12T01:35:12;53062.00;;;-139.96;35.16
7906;BME280;13291;40.472;-3.878;2023-05-12T01:37:39;53098.00;;;-139.96;35.29
7906;BME280;13291;40.472;-3.878;2023-05-12T01:40:07;53092.00;;;-139.96;35.24
7906;BME280;13291;40.472;-3.878;2023-05-12T01:42:34;53086.00;;;-139.96;35.22
7906;BME280;13291;40.472;-3.878;2023-05-12T01:45:03;53062.00;;;-139.96;34.97
7906;BME280;13291;40.472;-3.878;2023-05-12T01:47:30;53072.00;;;-139.96;34.72
7906;BME280;13291;40.472;-3.878;2023-05-12T01:49:57;53112.00;;;-139.96;34.69
7906;BME280;13291;40.472;-3.878;2023-05-12T01:52:24;53072.00;;;-139.96;34.72
7906;BME280;13291;40.472;-3.878;2023-05-12T01:54:51;53082.00;;;-139.96;34.80
7906;BME280;13291;40.472;-3.878;2023-05-12T01:57:18;53102.00;;;-139.96;34.59
7906;BME280;13291;40.472;-3.878;2023-05-12T01:59:44;53066.00;;;-139.96;34.56
7906;BME280;13291;40.472;-3.878;2023-05-12T02:02:13;53072.00;;;-139.96;34.57
7906;BME280;13291;40.472;-3.878;2023-05-12T02:04:40;53092.00;;;-139.96;34.64
7906;BME280;13291;40.472;-3.878;2023-05-12T02:07:07;53074.00;;;-139.96;34.96
7906;BME280;13291;40.472;-3.878;2023-05-12T02:09:34;53094.00;;;-139.96;34.95
7906;BME280;13291;40.472;-3.878;2023-05-12T02:12:02;53106.00;;;-139.96;34.82
7906;BME280;13291;40.472;-3.878;2023-05-12T02:14:29;53104.00;;;-139.96;35.08
7906;BME280;13291;40.472;-3.878;2023-05-12T02:16:55;53058.00;;;-139.96;35.14
7906;BME280;13291;40.472;-3.878;2023-05-12T02:19:24;53060.00;;;-139.96;35.20
7906;BME280;13291;40.472;-3.878;2023-05-12T02:21:51;53082.00;;;-139.96;35.29
7906;BME280;13291;40.472;-3.878;2023-05-12T02:24:18;53070.00;;;-139.96;35.26
7906;BME280;13291;40.472;-3.878;2023-05-12T02:26:45;53082.00;;;-139.96;35.63
7906;BME280;13291;40.472;-3.878;2023-05-12T02:29:12;53106.00;;;-139.96;35.91
7906;BME280;13291;40.472;-3.878;2023-05-12T02:31:39;53068.00;;;-139.96;35.89
7906;BME280;13291;40.472;-3.878;2023-05-12T02:34:06;53106.00;;;-139.96;36.25
7906;BME280;13291;40.472;-3.878;2023-05-12T02:36:34;53104.00;;;-139.96;36.22
7906;BME280;13291;40.472;-3.878;2023-05-12T02:39:02;53098.00;;;-139.96;36.51
7906;BME280;13291;40.472;-3.878;2023-05-12T02:41:30;53078.00;;;-139.96;36.63
7906;BME280;13291;40.472;-3.878;2023-05-12T02:43:57;53070.00;;;-139.96;36.66
7906;BME280;13291;40.472;-3.878;2023-05-12T02:46:24;53072.00;;;-139.96;36.79
7906;BME280;13291;40.472;-3.878;2023-05-12T02:48:51;53088.00;;;-139.96;36.72
7906;BME280;13291;40.472;-3.878;2023-05-12T02:51:18;53086.00;;;-139.96;36.56
7906;BME280;13291;40.472;-3.878;2023-05-12T02:53:46;53102.00;;;-139.96;36.42
7906;BME280;13291;40.472;-3.878;2023-05-12T02:56:13;53088.00;;;-139.96;36.70
7906;BME280;13291;40.472;-3.878;2023-05-12T02:58:40;53094.00;;;-139.96;36.85
7906;BME280;13291;40.472;-3.878;2023-05-12T03:01:07;53106.00;;;-139.96;37.24
7906;BME280;13291;40.472;-3.878;2023-05-12T03:03:35;53092.00;;;-139.96;37.47
7906;BME280;13291;40.472;-3.878;2023-05-12T03:06:03;53114.00;;;-139.96;37.36
7906;BME280;13291;40.472;-3.878;2023-05-12T03:08:30;53108.00;;;-139.96;37.27
7906;BME280;13291;40.472;-3.878;2023-05-12T03:10:58;53088.00;;;-139.96;37.56
7906;BME280;13291;40.472;-3.878;2023-05-12T03:13:26;53096.00;;;-139.96;37.56
7906;BME280;13291;40.472;-3.878;2023-05-12T03:15:52;53086.00;;;-139.96;37.63
7906;BME280;13291;40.472;-3.878;2023-05-12T03:18:20;53110.00;;;-139.96;37.54
7906;BME280;13291;40.472;-3.878;2023-05-12T03:20:47;53102.00;;;-139.96;37.80
7906;BME280;13291;40.472;-3.878;2023-05-12T03:23:14;53144.00;;;-139.96;38.23
7906;BME280;13291;40.472;-3.878;2023-05-12T03:25:41;53102.00;;;-139.96;38.23
7906;BME280;13291;40.472;-3.878;2023-05-12T03:28:09;53090.00;;;-139.96;37.66
7906;BME280;13291;40.472;-3.878;2023-05-12T03:30:37;53108.00;;;-139.96;38.35
7906;BME280;13291;40.472;-3.878;2023-05-12T03:33:04;53096.00;;;-139.96;39.10
7906;BME280;13291;40.472;-3.878;2023-05-12T03:35:31;53094.00;;;-139.96;39.34
7906;BME280;13291;40.472;-3.878;2023-05-12T03:37:58;53128.00;;;-139.96;39.39
7906;BME280;13291;40.472;-3.878;2023-05-12T03:40:25;53146.00;;;-139.96;39.14
7906;BME280;13291;40.472;-3.878;2023-05-12T03:42:52;53094.00;;;-139.96;38.93
7906;BME280;13291;40.472;-3.878;2023-05-12T03:45:20;53078.00;;;-139.96;38.08
7906;BME280;13291;40.472;-3.878;2023-05-12T03:47:47;53098.00;;;-139.96;38.62
7906;BME280;13291;40.472;-3.878;2023-05-12T03:50:14;53124.00;;;-139.96;38.64
7906;BME280;13291;40.472;-3.878;2023-05-12T03:52:41;53084.00;;;-139.96;38.77
7906;BME280;13291;40.472;-3.878;2023-05-12T03:55:08;53108.00;;;-139.96;38.48
7906;BME280;13291;40.472;-3.878;2023-05-12T03:57:35;53050.00;;;-139.96;38.24
7906;BME280;13291;40.472;-3.878;2023-05-12T04:00:03;53116.00;;;-139.96;38.27
7906;BME280;13291;40.472;-3.878;2023-05-12T04:02:32;53082.00;;;-139.96;38.35
7906;BME280;13291;40.472;-3.878;2023-05-12T04:04:59;53142.00;;;-139.96;38.38
7906;BME280;13291;40.472;-3.878;2023-05-12T04:07:26;53118.00;;;-139.96;38.56
7906;BME280;13291;40.472;-3.878;2023-05-12T04:09:53;53130.00;;;-139.96;38.81
7906;BME280;13291;40.472;-3.878;2023-05-12T04:12:20;53108.00;;;-139.96;38.75
7906;BME280;13291;40.472;-3.878;2023-05-12T04:14:46;53118.00;;;-139.96;39.16
7906;BME280;13291;40.472;-3.878;2023-05-12T04:17:13;53130.00;;;-139.96;38.90
7906;BME280;13291;40.472;-3.878;2023-05-12T04:19:44;53106.00;;;-139.96;38.70
7906;BME280;13291;40.472;-3.878;2023-05-12T04:22:11;53118.00;;;-139.96;38.76
7906;BME280;13291;40.472;-3.878;2023-05-12T04:24:38;53086.00;;;-139.96;38.26
7906;BME280;13291;40.472;-3.878;2023-05-12T04:27:05;53120.00;;;-139.96;38.51
7906;BME280;13291;40.472;-3.878;2023-05-12T04:29:32;53102.00;;;-139.96;38.18
7906;BME280;13291;40.472;-3.878;2023-05-12T04:31:59;53130.00;;;-139.96;38.20
7906;BME280;13291;40.472;-3.878;2023-05-12T04:34:26;53098.00;;;-139.96;38.00
7906;BME280;13291;40.472;-3.878;2023-05-12T04:36:54;53092.00;;;-139.96;38.05
7906;BME280;13291;40.472;-3.878;2023-05-12T04:39:21;53082.00;;;-139.96;38.19
7906;BME280;13291;40.472;-3.878;2023-05-12T04:41:48;53122.00;;;-139.96;38.57
7906;BME280;13291;40.472;-3.878;2023-05-12T04:44:15;53132.00;;;-139.96;38.51
7906;BME280;13291;40.472;-3.878;2023-05-12T04:46:43;53130.00;;;-139.96;39.12
7906;BME280;13291;40.472;-3.878;2023-05-12T04:49:10;53084.00;;;-139.96;38.68
7906;BME280;13291;40.472;-3.878;2023-05-12T04:51:37;53114.00;;;-139.96;38.72
7906;BME280;13291;40.472;-3.878;2023-05-12T04:54:08;53152.00;;;-139.96;38.93
7906;BME280;13291;40.472;-3.878;2023-05-12T04:56:35;53098.00;;;-139.96;39.17
7906;BME280;13291;40.472;-3.878;2023-05-12T04:59:02;53128.00;;;-139.96;39.20
7906;BME280;13291;40.472;-3.878;2023-05-12T05:01:29;53112.00;;;-139.96;39.21
7906;BME280;13291;40.472;-3.878;2023-05-12T05:03:56;53132.00;;;-139.96;39.38
7906;BME280;13291;40.472;-3.878;2023-05-12T05:06:23;53122.00;;;-139.96;39.33
7906;BME280;13291;40.472;-3.878;2023-05-12T05:08:50;53132.00;;;-139.96;39.16
7906;BME280;13291;40.472;-3.878;2023-05-12T05:11:19;53104.00;;;-139.96;39.42
7906;BME280;13291;40.472;-3.878;2023-05-12T05:13:46;53106.00;;;-139.96;39.53
7906;BME280;13291;40.472;-3.878;2023-05-12T05:16:13;53118.00;;;-139.96;39.15
7906;BME280;13291;40.472;-3.878;2023-05-12T05:18:40;53114.00;;;-139.96;39.56
7906;BME280;13291;40.472;-3.878;2023-05-12T05:21:10;53114.00;;;-139.96;39.67
7906;BME280;13291;40.472;-3.878;2023-05-12T05:23:38;53156.03;;;-139.96;39.73
7906;BME280;13291;40.472;-3.878;2023-05-12T05:26:05;53126.00;;;-139.96;40.19
7906;BME280;13291;40.472;-3.878;2023-05-12T05:28:33;53160.03;;;-139.96;40.33
7906;BME280;13291;40.472;-3.878;2023-05-12T05:31:00;53122.00;;;-139.96;40.36
7906;BME280;13291;40.472;-3.878;2023-05-12T05:33:27;53156.03;;;-139.96;40.36
7906;BME280;13291;40.472;-3.878;2023-05-12T05:35:54;53142.00;;;-139.96;40.65
7906;BME280;13291;40.472;-3.878;2023-05-12T05:38:21;53152.00;;;-139.96;40.67
7906;BME280;13291;40.472;-3.878;2023-05-12T05:40:48;53158.03;;;-139.96;40.78
7906;BME280;13291;40.472;-3.878;2023-05-12T05:43:15;53156.03;;;-139.96;40.88
7906;BME280;13291;40.472;-3.878;2023-05-12T05:45:43;53130.00;;;-139.96;41.00
7906;BME280;13291;40.472;-3.878;2023-05-12T05:48:10;53136.00;;;-139.96;41.06
7906;BME280;13291;40.472;-3.878;2023-05-12T05:50:37;53126.00;;;-139.96;40.95
7906;BME280;13291;40.472;-3.878;2023-05-12T05:53:04;53140.00;;;-139.96;41.00
7906;BME280;13291;40.472;-3.878;2023-05-12T05:55:31;53134.00;;;-139.96;41.28
7906;BME280;13291;40.472;-3.878;2023-05-12T05:57:58;53162.03;;;-139.96;41.15
7906;BME280;13291;40.472;-3.878;2023-05-12T06:00:25;53162.03;;;-139.96;40.90
7906;BME280;13291;40.472;-3.878;2023-05-12T06:02:53;53114.00;;;-139.96;40.93
7906;BME280;13291;40.472;-3.878;2023-05-12T06:05:20;53138.00;;;-139.96;41.15
7906;BME280;13291;40.472;-3.878;2023-05-12T06:07:47;53122.00;;;-139.96;41.33
7906;BME280;13291;40.472;-3.878;2023-05-12T06:10:14;53104.00;;;-139.96;41.18
7906;BME280;13291;40.472;-3.878;2023-05-12T06:12:41;53158.03;;;-139.96;41.19
7906;BME280;13291;40.472;-3.878;2023-05-12T06:15:09;53136.00;;;-139.96;41.29
7906;BME280;13291;40.472;-3.878;2023-05-12T06:17:36;53138.00;;;-139.96;41.41
7906;BME280;13291;40.472;-3.878;2023-05-12T06:20:05;53118.00;;;-139.96;40.76
7906;BME280;13291;40.472;-3.878;2023-05-12T06:22:33;53116.00;;;-139.96;40.92
7906;BME280;13291;40.472;-3.878;2023-05-12T06:25:00;53164.03;;;-139.96;41.34
7906;BME280;13291;40.472;-3.878;2023-05-12T06:27:28;53114.00;;;-139.96;41.37
7906;BME280;13291;40.472;-3.878;2023-05-12T06:29:55;53128.00;;;-139.96;41.41
7906;BME280;13291;40.472;-3.878;2023-05-12T06:32:22;53104.00;;;-139.96;41.15
7906;BME280;13291;40.472;-3.878;2023-05-12T06:34:49;53106.00;;;-139.96;41.29
7906;BME280;13291;40.472;-3.878;2023-05-12T06:37:17;53106.00;;;-139.96;40.46
7906;BME280;13291;40.472;-3.878;2023-05-12T06:39:44;53080.00;;;-139.96;39.21
7906;BME280;13291;40.472;-3.878;2023-05-12T06:42:11;53112.00;;;-139.96;39.39
7906;BME280;13291;40.472;-3.878;2023-05-12T06:44:38;53124.00;;;-139.96;39.41
7906;BME280;13291;40.472;-3.878;2023-05-12T06:47:05;53116.00;;;-139.96;39.26
7906;BME280;13291;40.472;-3.878;2023-05-12T06:49:32;53092.00;;;-139.96;39.07
7906;BME280;13291;40.472;-3.878;2023-05-12T06:52:01;53092.00;;;-139.96;39.04
7906;BME280;13291;40.472;-3.878;2023-05-12T06:54:30;53086.00;;;-139.96;39.01
7906;BME280;13291;40.472;-3.878;2023-05-12T06:56:57;53114.00;;;-139.96;38.99
7906;BME280;13291;40.472;-3.878;2023-05-12T06:59:24;53086.00;;;-139.96;37.69
7906;BME280;13291;40.472;-3.878;2023-05-12T07:01:51;53094.00;;;-139.96;37.63
7906;BME280;13291;40.472;-3.878;2023-05-12T07:04:18;53098.00;;;-139.96;37.59
7906;BME280;13291;40.472;-3.878;2023-05-12T07:06:46;53100.00;;;-139.96;37.15
7906;BME280;13291;40.472;-3.878;2023-05-12T07:09:12;53076.00;;;-139.96;36.99
7906;BME280;13291;40.472;-3.878;2023-05-12T07:11:41;53108.00;;;-139.96;37.71
7906;BME280;13291;40.472;-3.878;2023-05-12T07:14:08;53058.00;;;-139.96;36.56
7906;BME280;13291;40.472;-3.878;2023-05-12T07:16:34;53090.00;;;-139.96;36.60
7906;BME280;13291;40.472;-3.878;2023-05-12T07:19:01;53082.00;;;-139.96;36.35
7906;BME280;13291;40.472;-3.878;2023-05-12T07:21:30;53098.00;;;-139.96;36.69
7906;BME280;13291;40.472;-3.878;2023-05-12T07:23:57;53078.00;;;-139.96;36.28
7906;BME280;13291;40.472;-3.878;2023-05-12T07:26:24;53102.00;;;-139.96;36.49
7906;BME280;13291;40.472;-3.878;2023-05-12T07:28:52;53078.00;;;-139.96;36.39
7906;BME280;13291;40.472;-3.878;2023-05-12T07:31:19;53080.00;;;-139.96;36.36
7906;BME280;13291;40.472;-3.878;2023-05-12T07:33:46;53080.00;;;-139.96;37.30
7906;BME280;13291;40.472;-3.878;2023-05-12T07:36:13;53074.00;;;-139.96;36.54
7906;BME280;13291;40.472;-3.878;2023-05-12T07:38:40;53054.00;;;-139.96;36.32
7906;BME280;13291;40.472;-3.878;2023-05-12T07:41:07;53068.00;;;-139.96;36.35
7906;BME280;13291;40.472;-3.878;2023-05-12T07:43:34;53068.00;;;-139.96;36.61
7906;BME280;13291;40.472;-3.878;2023-05-12T07:46:02;53068.00;;;-139.96;36.76
7906;BME280;13291;40.472;-3.878;2023-05-12T07:48:29;53066.00;;;-139.96;36.22
7906;BME280;13291;40.472;-3.878;2023-05-12T07:50:56;53070.00;;;-139.96;36.20
7906;BME280;13291;40.472;-3.878;2023-05-12T07:53:23;53072.00;;;-139.96;35.96
7906;BME280;13291;40.472;-3.878;2023-05-12T07:55:50;53052.00;;;-139.96;36.13
7906;BME280;13291;40.472;-3.878;2023-05-12T07:58:17;53098.00;;;-139.96;36.56
7906;BME280;13291;40.472;-3.878;2023-05-12T08:00:45;53082.00;;;-139.96;36.96
7906;BME280;13291;40.472;-3.878;2023-05-12T08:03:13;53074.00;;;-139.96;35.98
7906;BME280;13291;40.472;-3.878;2023-05-12T08:05:40;53074.00;;;-139.96;36.12
7906;BME280;13291;40.472;-3.878;2023-05-12T08:08:07;53092.00;;;-139.96;36.02
7906;BME280;13291;40.472;-3.878;2023-05-12T08:10:40;53076.00;;;-139.96;36.73
7906;BME280;13291;40.472;-3.878;2023-05-12T08:13:07;53090.00;;;-139.96;36.11
7906;BME280;13291;40.472;-3.878;2023-05-12T08:15:34;53058.00;;;-139.96;35.64
7906;BME280;13291;40.472;-3.878;2023-05-12T08:18:01;53058.00;;;-139.96;35.75
7906;BME280;13291;40.472;-3.878;2023-05-12T08:20:29;53040.00;;;-139.96;35.29
7906;BME280;13291;40.472;-3.878;2023-05-12T08:22:56;53068.00;;;-139.96;35.15
7906;BME280;13291;40.472;-3.878;2023-05-12T08:25:23;53064.00;;;-139.96;35.62
7906;BME280;13291;40.472;-3.878;2023-05-12T08:27:52;53030.00;;;-139.96;34.51
7906;BME280;13291;40.472;-3.878;2023-05-12T08:30:19;53068.00;;;-139.96;35.03
7906;BME280;13291;40.472;-3.878;2023-05-12T08:32:46;53068.00;;;-139.96;35.10
7906;BME280;13291;40.472;-3.878;2023-05-12T08:35:13;53038.00;;;-139.96;34.66
7906;BME280;13291;40.472;-3.878;2023-05-12T08:37:41;53088.00;;;-139.96;34.81
7906;BME280;13291;40.472;-3.878;2023-05-12T08:40:14;53052.00;;;-139.96;34.54
7906;BME280;13291;40.472;-3.878;2023-05-12T08:42:43;53062.00;;;-139.96;34.72
7906;BME280;13291;40.472;-3.878;2023-05-12T08:45:10;53054.00;;;-139.96;35.27
7906;BME280;13291;40.472;-3.878;2023-05-12T08:47:37;53106.00;;;-139.96;33.72
7906;BME280;13291;40.472;-3.878;2023-05-12T08:50:05;53058.00;;;-139.96;35.47
7906;BME280;13291;40.472;-3.878;2023-05-12T08:52:34;53086.00;;;-139.96;35.14
7906;BME280;13291;40.472;-3.878;2023-05-12T08:55:03;53058.00;;;-139.96;34.13
7906;BME280;13291;40.472;-3.878;2023-05-12T08:57:31;53078.00;;;-139.96;33.75
7906;BME280;13291;40.472;-3.878;2023-05-12T09:00:01;53074.00;;;-139.96;34.26
7906;BME280;13291;40.472;-3.878;2023-05-12T09:02:30;53074.00;;;-139.96;34.12
7906;BME280;13291;40.472;-3.878;2023-05-12T09:04:57;53054.00;;;-139.96;34.27
7906;BME280;13291;40.472;-3.878;2023-05-12T09:07:24;53044.00;;;-139.96;34.54
7906;BME280;13291;40.472;-3.878;2023-05-12T09:09:55;53054.00;;;-139.96;34.28
7906;BME280;13291;40.472;-3.878;2023-05-12T09:12:25;53078.00;;;-139.96;34.26
7906;BME280;13291;40.472;-3.878;2023-05-12T09:14:59;53084.00;;;-139.96;34.16
7906;BME280;13291;40.472;-3.878;2023-05-12T09:17:29;53094.00;;;-139.96;33.75
7906;BME280;13291;40.472;-3.878;2023-05-12T09:19:56;53064.00;;;-139.96;33.69
7906;BME280;13291;40.472;-3.878;2023-05-12T09:22:27;53026.00;;;-139.96;34.19
7906;BME280;13291;40.472;-3.878;2023-05-12T09:24:54;53038.00;;;-139.96;34.29
7906;BME280;13291;40.472;-3.878;2023-05-12T09:27:25;53070.00;;;-139.96;34.32
7906;BME280;13291;40.472;-3.878;2023-05-12T09:29:53;53020.00;;;-139.96;35.10
7906;BME280;13291;40.472;-3.878;2023-05-12T09:32:29;53054.00;;;-139.96;34.79
7906;BME280;13291;40.472;-3.878;2023-05-12T09:35:01;53036.00;;;-139.96;33.99
7906;BME280;13291;40.472;-3.878;2023-05-12T09:37:30;53074.00;;;-139.96;34.39
7906;BME280;13291;40.472;-3.878;2023-05-12T09:40:00;53066.00;;;-139.96;35.46
7906;BME280;13291;40.472;-3.878;2023-05-12T09:42:29;53038.00;;;-139.96;34.69
7906;BME280;13291;40.472;-3.878;2023-05-12T09:45:01;53038.00;;;-139.96;34.35
7906;BME280;13291;40.472;-3.878;2023-05-12T09:47:33;53040.00;;;-139.96;33.80
7906;BME280;13291;40.472;-3.878;2023-05-12T09:50:00;53058.00;;;-139.96;34.21
7906;BME280;13291;40.472;-3.878;2023-05-12T09:52:28;53050.00;;;-139.96;33.61
7906;BME280;13291;40.472;-3.878;2023-05-12T09:55:04;53060.00;;;-139.96;33.35
7906;BME280;13291;40.472;-3.878;2023-05-12T09:57:34;53016.00;;;-139.96;33.99
7906;BME280;13291;40.472;-3.878;2023-05-12T10:00:02;53048.00;;;-139.96;34.69
7906;BME280;13291;40.472;-3.878;2023-05-12T10:02:29;53050.00;;;-139.96;35.58
7906;BME280;13291;40.472;-3.878;2023-05-12T10:05:01;53052.00;;;-139.96;33.05
7906;BME280;13291;40.472;-3.878;2023-05-12T10:07:28;53042.00;;;-139.96;32.65
7906;BME280;13291;40.472;-3.878;2023-05-12T10:09:58;53046.00;;;-139.96;32.38
7906;BME280;13291;40.472;-3.878;2023-05-12T10:12:27;53048.00;;;-139.96;32.55
7906;BME280;13291;40.472;-3.878;2023-05-12T10:14:55;53032.00;;;-139.96;33.55
7906;BME280;13291;40.472;-3.878;2023-05-12T10:17:24;53030.00;;;-139.96;32.85
7906;BME280;13291;40.472;-3.878;2023-05-12T10:19:52;53042.00;;;-139.96;32.59
7906;BME280;13291;40.472;-3.878;2023-05-12T10:22:20;53070.00;;;-139.96;33.16
7906;BME280;13291;40.472;-3.878;2023-05-12T10:24:48;53022.00;;;-139.96;32.53
7906;BME280;13291;40.472;-3.878;2023-05-12T10:27:15;53042.00;;;-139.96;32.82
7906;BME280;13291;40.472;-3.878;2023-05-12T10:29:44;53040.00;;;-139.96;33.24
7906;BME280;13291;40.472;-3.878;2023-05-12T10:32:14;53062.00;;;-139.96;32.21
7906;BME280;13291;40.472;-3.878;2023-05-12T10:34:41;53022.00;;;-139.96;33.51
7906;BME280;13291;40.472;-3.878;2023-05-12T10:37:09;53024.00;;;-139.96;33.22
7906;BME280;13291;40.472;-3.878;2023-05-12T10:39:45;53070.00;;;-139.96;32.46
7906;BME280;13291;40.472;-3.878;2023-05-12T10:42:16;53022.00;;;-139.96;32.70
7906;BME280;13291;40.472;-3.878;2023-05-12T10:44:50;53060.00;;;-139.96;32.65
7906;BME280;13291;40.472;-3.878;2023-05-12T10:47:22;53054.00;;;-139.96;33.80
7906;BME280;13291;40.472;-3.878;2023-05-12T10:49:55;53014.00;;;-139.96;33.01
7906;BME280;13291;40.472;-3.878;2023-05-12T10:52:22;53009.97;;;-139.96;32.95
7906;BME280;13291;40.472;-3.878;2023-05-12T10:54:49;53028.00;;;-139.96;34.58
7906;BME280;13291;40.472;-3.878;2023-05-12T10:57:25;52991.97;;;-139.96;33.24
7906;BME280;13291;40.472;-3.878;2023-05-12T10:59:56;53005.97;;;-139.96;32.70
7906;BME280;13291;40.472;-3.878;2023-05-12T11:02:26;53007.97;;;-139.96;33.17
7906;BME280;13291;40.472;-3.878;2023-05-12T11:04:56;53020.00;;;-139.96;32.56
7906;BME280;13291;40.472;-3.878;2023-05-12T11:07:24;53028.00;;;-139.96;31.92
7906;BME280;13291;40.472;-3.878;2023-05-12T11:09:52;53014.00;;;-139.96;33.00
7906;BME280;13291;40.472;-3.878;2023-05-12T11:12:20;52997.97;;;-139.96;31.88
7906;BME280;13291;40.472;-3.878;2023-05-12T11:14:47;53020.00;;;-139.96;31.86
7906;BME280;13291;40.472;-3.878;2023-05-12T11:17:14;53001.97;;;-139.96;31.21
7906;BME280;13291;40.472;-3.878;2023-05-12T11:19:46;53005.97;;;-139.96;32.12
7906;BME280;13291;40.472;-3.878;2023-05-12T11:22:16;53026.00;;;-139.96;32.43
7906;BME280;13291;40.472;-3.878;2023-05-12T11:24:44;53022.00;;;-139.96;31.58
7906;BME280;13291;40.472;-3.878;2023-05-12T11:27:12;53042.00;;;-139.96;30.28
7906;BME280;13291;40.472;-3.878;2023-05-12T11:29:40;53022.00;;;-139.96;31.08
7906;BME280;13291;40.472;-3.878;2023-05-12T11:32:08;53018.00;;;-139.96;30.63
7906;BME280;13291;40.472;-3.878;2023-05-12T11:34:37;52987.97;;;-139.96;31.18
7906;BME280;13291;40.472;-3.878;2023-05-12T11:37:05;53020.00;;;-139.96;31.25
7906;BME280;13291;40.472;-3.878;2023-05-12T11:39:32;53001.97;;;-139.96;31.35
7906;BME280;13291;40.472;-3.878;2023-05-12T11:42:01;53022.00;;;-139.96;30.06
7906;BME280;13291;40.472;-3.878;2023-05-12T11:44:29;52985.97;;;-139.96;29.78
7906;BME280;13291;40.472;-3.878;2023-05-12T11:46:57;52969.97;;;-139.96;29.61
7906;BME280;13291;40.472;-3.878;2023-05-12T11:49:25;53018.00;;;-139.96;29.93
7906;BME280;13291;40.472;-3.878;2023-05-12T11:51:53;53024.00;;;-139.96;30.35
7906;BME280;13291;40.472;-3.878;2023-05-12T11:54:22;53007.97;;;-139.96;30.56
7906;BME280;13291;40.472;-3.878;2023-05-12T11:56:50;53012.00;;;-139.96;31.04
7906;BME280;13291;40.472;-3.878;2023-05-12T11:59:27;53007.97;;;-139.96;30.11
7906;BME280;13291;40.472;-3.878;2023-05-12T12:01:55;52985.97;;;-139.96;30.23
7906;BME280;13291;40.472;-3.878;2023-05-12T12:04:33;53038.00;;;-139.96;30.39
7906;BME280;13291;40.472;-3.878;2023-05-12T12:07:01;53026.00;;;-139.96;31.56
7906;BME280;13291;40.472;-3.878;2023-05-12T12:09:34;53028.00;;;-139.96;32.20
7906;BME280;13291;40.472;-3.878;2023-05-12T12:12:02;53022.00;;;-139.96;31.68
7906;BME280;13291;40.472;-3.878;2023-05-12T12:14:30;53018.00;;;-139.96;32.49
7906;BME280;13291;40.472;-3.878;2023-05-12T12:16:57;53028.00;;;-139.96;32.51
7906;BME280;13291;40.472;-3.878;2023-05-12T12:19:24;53046.00;;;-139.96;32.84
7906;BME280;13291;40.472;-3.878;2023-05-12T12:21:52;53058.00;;;-139.96;32.60
7906;BME280;13291;40.472;-3.878;2023-05-12T12:24:19;53054.00;;;-139.96;31.87
7906;BME280;13291;40.472;-3.878;2023-05-12T12:26:47;53044.00;;;-139.96;32.76
7906;BME280;13291;40.472;-3.878;2023-05-12T12:29:15;53042.00;;;-139.96;32.96
7906;BME280;13291;40.472;-3.878;2023-05-12T12:31:42;53030.00;;;-139.96;31.72
7906;BME280;13291;40.472;-3.878;2023-05-12T12:34:09;53030.00;;;-139.96;31.47
7906;BME280;13291;40.472;-3.878;2023-05-12T12:36:36;53016.00;;;-139.96;31.42
7906;BME280;13291;40.472;-3.878;2023-05-12T12:39:03;53034.00;;;-139.96;30.40
7906;BME280;13291;40.472;-3.878;2023-05-12T12:41:30;53022.00;;;-139.96;30.92
7906;BME280;13291;40.472;-3.878;2023-05-12T12:43:58;53009.97;;;-139.96;29.64